NKS1454 KFLL-MKJP
Flight info
| Callsign | NKS1454 |
|---|---|
| Flight time | N/A |
| Altitude | 36000 |
| Route | REGAE2 URSUS UP406 BILSI UL795 BOPOL UR625 NEFTU UP525 EMABU UA301 IMADI DCT SAVEM ELSER6 |
| Aircraft | A20N/M-SDE2E3FGHIRWXY/LB1 |
Departure
| Time | 2026-05-05 23:50 |
|---|---|
| Airport | Fort Lauderdale Hollywood International Airport (KFLL) |
Arrival
| Time | N/A |
|---|---|
| Airport | Norman Manley International Airport (MKJP) |
| Time | Latitude | Longitude | Altitude | Speed | Heading |
|---|---|---|---|---|---|
| 2026-05-05 23:28 | 26.06962 | -80.14151 | 9 ft | 0 kts | 281° |
| 2026-05-05 23:39 | 26.06960 | -80.14143 | 9 ft | 2 kts | 280° |
| 2026-05-05 23:40 | 26.06957 | -80.14126 | 9 ft | 2 kts | 281° |
| 2026-05-05 23:40 | 26.06955 | -80.14110 | 9 ft | 2 kts | 281° |
| 2026-05-05 23:40 | 26.06952 | -80.14093 | 9 ft | 1 kts | 281° |
| 2026-05-05 23:40 | 26.06950 | -80.14087 | 9 ft | 0 kts | 267° |
| 2026-05-05 23:41 | 26.06952 | -80.14082 | 9 ft | 0 kts | 207° |
| 2026-05-05 23:41 | 26.06957 | -80.14080 | 9 ft | 1 kts | 173° |
| 2026-05-05 23:41 | 26.06962 | -80.14080 | 9 ft | 0 kts | 183° |
| 2026-05-05 23:44 | 26.06961 | -80.14080 | 9 ft | 0 kts | 183° |
| 2026-05-05 23:44 | 26.06952 | -80.14081 | 9 ft | 2 kts | 182° |
| 2026-05-05 23:45 | 26.06927 | -80.14083 | 9 ft | 4 kts | 184° |
| 2026-05-05 23:45 | 26.06884 | -80.14085 | 9 ft | 7 kts | 181° |
| 2026-05-05 23:45 | 26.06826 | -80.14088 | 9 ft | 8 kts | 202° |
| 2026-05-05 23:45 | 26.06811 | -80.14157 | 9 ft | 10 kts | 274° |
| 2026-05-05 23:46 | 26.06816 | -80.14249 | 9 ft | 12 kts | 267° |
| 2026-05-05 23:46 | 26.06813 | -80.14354 | 9 ft | 14 kts | 269° |
| 2026-05-05 23:46 | 26.06809 | -80.14472 | 9 ft | 16 kts | 262° |
| 2026-05-05 23:46 | 26.06776 | -80.14582 | 9 ft | 14 kts | 245° |
| 2026-05-05 23:47 | 26.06762 | -80.14696 | 9 ft | 15 kts | 273° |
| 2026-05-05 23:47 | 26.06763 | -80.14823 | 9 ft | 17 kts | 272° |
| 2026-05-05 23:47 | 26.06716 | -80.14928 | 9 ft | 17 kts | 206° |
| 2026-05-05 23:47 | 26.06691 | -80.15051 | 9 ft | 17 kts | 271° |
| 2026-05-05 23:48 | 26.06694 | -80.15194 | 9 ft | 19 kts | 270° |
| 2026-05-05 23:48 | 26.06695 | -80.15344 | 9 ft | 19 kts | 271° |
| 2026-05-05 23:48 | 26.06697 | -80.15504 | 9 ft | 20 kts | 271° |
| 2026-05-05 23:48 | 26.06698 | -80.15666 | 9 ft | 21 kts | 268° |
| 2026-05-05 23:49 | 26.06648 | -80.15740 | 9 ft | 11 kts | 180° |
| 2026-05-05 23:49 | 26.06587 | -80.15686 | 9 ft | 13 kts | 92° |
| 2026-05-05 23:49 | 26.06587 | -80.15466 | 10 ft | 63 kts | 89° |
| 2026-05-05 23:49 | 26.06582 | -80.14690 | 12 ft | 134 kts | 91° |
| 2026-05-05 23:50 | 26.06581 | -80.13518 | 356 ft | 158 kts | 88° |
| 2026-05-05 23:50 | 26.06550 | -80.12309 | 1101 ft | 160 kts | 89° |
| 2026-05-05 23:50 | 26.06534 | -80.11049 | 1764 ft | 169 kts | 85° |
| 2026-05-05 23:50 | 26.06577 | -80.09704 | 2260 ft | 184 kts | 85° |
| 2026-05-05 23:51 | 26.06624 | -80.08199 | 2759 ft | 202 kts | 86° |
| 2026-05-05 23:51 | 26.06661 | -80.06567 | 3228 ft | 222 kts | 87° |
| 2026-05-05 23:51 | 26.06692 | -80.04759 | 3680 ft | 244 kts | 88° |
| 2026-05-05 23:51 | 26.06719 | -80.02801 | 4235 ft | 263 kts | 88° |
| 2026-05-05 23:52 | 26.06744 | -80.00713 | 4782 ft | 282 kts | 89° |
| 2026-05-05 23:52 | 26.06737 | -79.98440 | 5324 ft | 301 kts | 90° |
| 2026-05-05 23:52 | 26.06709 | -79.96044 | 5960 ft | 316 kts | 90° |
| 2026-05-05 23:52 | 26.06589 | -79.93572 | 6782 ft | 323 kts | 95° |
| 2026-05-05 23:53 | 26.06236 | -79.91122 | 7593 ft | 328 kts | 108° |
| 2026-05-05 23:53 | 26.05040 | -79.88973 | 8420 ft | 332 kts | 136° |
| 2026-05-05 23:53 | 26.03113 | -79.87531 | 9195 ft | 334 kts | 159° |
| 2026-05-05 23:53 | 26.00892 | -79.86727 | 9922 ft | 338 kts | 165° |
| 2026-05-05 23:54 | 25.98616 | -79.85960 | 10629 ft | 343 kts | 165° |
| 2026-05-05 23:54 | 25.96303 | -79.85179 | 11322 ft | 348 kts | 165° |
| 2026-05-05 23:54 | 25.94057 | -79.84416 | 11984 ft | 352 kts | 165° |
| 2026-05-05 23:54 | 25.91699 | -79.83612 | 12657 ft | 356 kts | 165° |
| 2026-05-05 23:55 | 25.89297 | -79.82790 | 13313 ft | 360 kts | 165° |
| 2026-05-05 23:55 | 25.87656 | -79.82226 | 13748 ft | 363 kts | 165° |
| 2026-05-05 23:55 | 25.85901 | -79.81625 | 14205 ft | 366 kts | 165° |
| 2026-05-05 23:55 | 25.83444 | -79.80782 | 14835 ft | 370 kts | 165° |
| 2026-05-05 23:56 | 25.80990 | -79.79940 | 15442 ft | 374 kts | 165° |
| 2026-05-05 23:56 | 25.78452 | -79.79068 | 16014 ft | 379 kts | 165° |
| 2026-05-05 23:56 | 25.75902 | -79.78192 | 16595 ft | 384 kts | 165° |
| 2026-05-05 23:56 | 25.73338 | -79.77313 | 17184 ft | 387 kts | 165° |
| 2026-05-05 23:57 | 25.70768 | -79.76430 | 17761 ft | 390 kts | 165° |
| 2026-05-05 23:57 | 25.68154 | -79.75532 | 18318 ft | 393 kts | 165° |
| 2026-05-05 23:57 | 25.65526 | -79.74630 | 18843 ft | 397 kts | 165° |
| 2026-05-05 23:57 | 25.62862 | -79.73714 | 19338 ft | 401 kts | 165° |
| 2026-05-05 23:58 | 25.60176 | -79.72793 | 19805 ft | 406 kts | 165° |
| 2026-05-05 23:58 | 25.57451 | -79.71859 | 20293 ft | 410 kts | 166° |
| 2026-05-05 23:58 | 25.54695 | -79.70917 | 20778 ft | 413 kts | 166° |
| 2026-05-05 23:58 | 25.51938 | -79.69974 | 21229 ft | 417 kts | 166° |
| 2026-05-05 23:59 | 25.49141 | -79.69016 | 21678 ft | 421 kts | 166° |
| 2026-05-05 23:59 | 25.46331 | -79.68056 | 22119 ft | 425 kts | 166° |
| 2026-05-05 23:59 | 25.43463 | -79.67075 | 22557 ft | 429 kts | 166° |
| 2026-05-05 23:59 | 25.40624 | -79.66109 | 23046 ft | 432 kts | 166° |
| 2026-05-06 00:00 | 25.37717 | -79.65118 | 23519 ft | 435 kts | 166° |
| 2026-05-06 00:00 | 25.34798 | -79.64122 | 23964 ft | 440 kts | 166° |
| 2026-05-06 00:00 | 25.31900 | -79.63135 | 24409 ft | 443 kts | 166° |
| 2026-05-06 00:00 | 25.28896 | -79.62110 | 24884 ft | 447 kts | 166° |
| 2026-05-06 00:01 | 25.25923 | -79.61098 | 25335 ft | 450 kts | 166° |
| 2026-05-06 00:01 | 25.22913 | -79.60074 | 25782 ft | 453 kts | 166° |
| 2026-05-06 00:01 | 25.19863 | -79.59038 | 26212 ft | 457 kts | 166° |
| 2026-05-06 00:01 | 25.16800 | -79.57996 | 26630 ft | 461 kts | 166° |
| 2026-05-06 00:02 | 25.13742 | -79.56955 | 27060 ft | 464 kts | 166° |
| 2026-05-06 00:02 | 25.10630 | -79.55898 | 27480 ft | 467 kts | 166° |
| 2026-05-06 00:02 | 25.07493 | -79.54833 | 27883 ft | 470 kts | 166° |
| 2026-05-06 00:02 | 25.04386 | -79.53777 | 28271 ft | 473 kts | 166° |
| 2026-05-06 00:03 | 25.01213 | -79.52698 | 28672 ft | 475 kts | 166° |
| 2026-05-06 00:03 | 24.98029 | -79.51620 | 29038 ft | 478 kts | 166° |
| 2026-05-06 00:03 | 24.94835 | -79.50538 | 29381 ft | 481 kts | 166° |
| 2026-05-06 00:03 | 24.91624 | -79.49451 | 29722 ft | 484 kts | 166° |
| 2026-05-06 00:04 | 24.88392 | -79.48358 | 30021 ft | 487 kts | 166° |
| 2026-05-06 00:04 | 24.85108 | -79.47247 | 30322 ft | 490 kts | 166° |
| 2026-05-06 00:04 | 24.81840 | -79.46141 | 30605 ft | 492 kts | 166° |
| 2026-05-06 00:04 | 24.78562 | -79.45035 | 30870 ft | 495 kts | 166° |
| 2026-05-06 00:05 | 24.71913 | -79.42789 | 31374 ft | 500 kts | 166° |
| 2026-05-06 00:05 | 24.68566 | -79.41660 | 31639 ft | 502 kts | 166° |
| 2026-05-06 00:05 | 24.65201 | -79.40526 | 31872 ft | 504 kts | 166° |
| 2026-05-06 00:06 | 24.61842 | -79.39395 | 32191 ft | 504 kts | 166° |
| 2026-05-06 00:06 | 24.58478 | -79.38260 | 32708 ft | 499 kts | 166° |
| 2026-05-06 00:06 | 24.55118 | -79.37129 | 33026 ft | 500 kts | 165° |
| 2026-05-06 00:06 | 24.51728 | -79.35989 | 33249 ft | 502 kts | 166° |
| 2026-05-06 00:07 | 24.48362 | -79.34858 | 33475 ft | 504 kts | 166° |
| 2026-05-06 00:07 | 24.45031 | -79.33740 | 33694 ft | 506 kts | 166° |
| 2026-05-06 00:07 | 24.41624 | -79.32595 | 33908 ft | 508 kts | 166° |
| 2026-05-06 00:07 | 24.38259 | -79.31463 | 34102 ft | 509 kts | 165° |
| 2026-05-06 00:08 | 24.34846 | -79.30179 | 34303 ft | 512 kts | 162° |
| 2026-05-06 00:08 | 24.31533 | -79.28696 | 34481 ft | 515 kts | 158° |
| 2026-05-06 00:08 | 24.28303 | -79.26992 | 34650 ft | 517 kts | 154° |
| 2026-05-06 00:08 | 24.25148 | -79.25060 | 34804 ft | 519 kts | 149° |
| 2026-05-06 00:09 | 24.22086 | -79.22921 | 34954 ft | 521 kts | 147° |
| 2026-05-06 00:09 | 24.19047 | -79.20708 | 35122 ft | 522 kts | 147° |
| 2026-05-06 00:09 | 24.16025 | -79.18498 | 35281 ft | 523 kts | 147° |
| 2026-05-06 00:09 | 24.12981 | -79.16290 | 35407 ft | 525 kts | 147° |
| 2026-05-06 00:10 | 24.09922 | -79.14089 | 35504 ft | 526 kts | 147° |
| 2026-05-06 00:10 | 24.06832 | -79.11928 | 35630 ft | 527 kts | 150° |
| 2026-05-06 00:10 | 24.03615 | -79.09969 | 35770 ft | 527 kts | 154° |
| 2026-05-06 00:11 | 23.96843 | -79.06848 | 35952 ft | 527 kts | 163° |
| 2026-05-06 00:11 | 23.89728 | -79.04856 | 36004 ft | 524 kts | 172° |
| 2026-05-06 00:12 | 23.82501 | -79.03464 | 36009 ft | 524 kts | 173° |
| 2026-05-06 00:12 | 23.75296 | -79.02086 | 36011 ft | 525 kts | 173° |
| 2026-05-06 00:13 | 23.68208 | -79.00697 | 36012 ft | 523 kts | 173° |
| 2026-05-06 00:13 | 23.61007 | -78.99273 | 36010 ft | 524 kts | 173° |
| 2026-05-06 00:14 | 23.53810 | -78.97855 | 36013 ft | 524 kts | 172° |
| 2026-05-06 00:14 | 23.46576 | -78.96427 | 36016 ft | 524 kts | 172° |
| 2026-05-06 00:15 | 23.39433 | -78.95020 | 36016 ft | 523 kts | 172° |
| 2026-05-06 00:15 | 23.32202 | -78.93600 | 36018 ft | 523 kts | 172° |
| 2026-05-06 00:16 | 23.25095 | -78.91931 | 36018 ft | 525 kts | 165° |
| 2026-05-06 00:16 | 23.18236 | -78.89053 | 36018 ft | 527 kts | 154° |
| 2026-05-06 00:17 | 23.11901 | -78.84904 | 36019 ft | 528 kts | 143° |
| 2026-05-06 00:17 | 23.06082 | -78.80029 | 36023 ft | 527 kts | 141° |
| 2026-05-06 00:18 | 23.00334 | -78.75137 | 36028 ft | 526 kts | 141° |
| 2026-05-06 00:18 | 22.94536 | -78.70255 | 36020 ft | 526 kts | 141° |
| 2026-05-06 00:19 | 22.88713 | -78.65384 | 36027 ft | 526 kts | 141° |
| 2026-05-06 00:19 | 22.82884 | -78.60520 | 36025 ft | 526 kts | 141° |
| 2026-05-06 00:20 | 22.77050 | -78.55656 | 36017 ft | 525 kts | 141° |
| 2026-05-06 00:20 | 22.71270 | -78.50844 | 36024 ft | 525 kts | 141° |
| 2026-05-06 00:21 | 22.65515 | -78.46061 | 36020 ft | 525 kts | 141° |